Coal Creek, Iowa
Current Conditions -  °F | °C
As of 10:15 AM on Sunday 25 Jan 2015 (Local Time) from KOOA Reporting Station
Light Snow Light Snow  
Wind Chill: 20°   Ceiling: 700
Heat Index: 32°   Visibility: 1.7mi
Dew Point: 31°   Wind: 18mph
Humidity: 98%   Direction: 40°NE
Pressure: 29.77"   Gusts: 22mph
Location:  41.3798°N, 92.3541°W
Report Text: KOOA 251615Z AUTO 04016G19KT 1 3/4SM -SN OVC007 00/00 A2977 RMK AO2 T00001003
Loading
Personal Weather Stations






























Interactive Weather Map New forecast layout! Learn more

10-Day Weather Forecast

Advertisements
Track Severe Weather on mobile